createdAt,value
2019-02-06T00:00:42.110Z,102226.00
2019-02-06T00:03:14.386Z,102217.00
2019-02-06T00:05:44.766Z,102213.00
2019-02-06T00:08:15.291Z,102223.00
2019-02-06T00:10:45.657Z,102218.00
2019-02-06T00:13:16.059Z,102225.00
2019-02-06T00:15:46.398Z,102218.00
2019-02-06T00:18:16.771Z,102224.00
2019-02-06T00:20:47.139Z,102226.00
2019-02-06T00:23:17.534Z,102227.00
2019-02-06T00:25:47.890Z,102235.00
2019-02-06T00:28:18.272Z,102234.00
2019-02-06T00:30:49.110Z,102233.00
2019-02-06T00:33:19.487Z,102226.00
2019-02-06T00:35:49.841Z,102231.00
2019-02-06T00:38:20.892Z,102236.00
2019-02-06T00:40:51.279Z,102231.00
2019-02-06T00:43:21.645Z,102227.00
2019-02-06T00:45:52.032Z,102232.00
2019-02-06T00:48:22.387Z,102230.00
2019-02-06T00:50:52.768Z,102224.00
2019-02-06T00:53:23.130Z,102218.00
2019-02-06T00:55:53.508Z,102219.00
2019-02-06T00:58:24.247Z,102226.00
2019-02-06T01:00:54.627Z,102231.00
2019-02-06T01:03:24.980Z,102226.00
2019-02-06T01:05:55.355Z,102229.00
2019-02-06T01:08:25.716Z,102224.00
2019-02-06T01:10:56.159Z,102228.00
2019-02-06T01:13:26.527Z,102229.00
2019-02-06T01:15:56.910Z,102226.00
2019-02-06T01:18:27.272Z,102222.00
2019-02-06T01:20:57.648Z,102220.00
2019-02-06T01:23:28.305Z,102221.00
2019-02-06T01:25:58.664Z,102221.00
2019-02-06T01:28:29.035Z,102227.00
2019-02-06T01:31:01.051Z,102221.00
2019-02-06T01:33:31.411Z,102228.00
2019-02-06T01:36:01.791Z,102232.00
2019-02-06T01:38:32.145Z,102216.00
2019-02-06T01:41:03.002Z,102228.00
2019-02-06T01:43:33.366Z,102235.00
2019-02-06T01:46:03.744Z,102232.00
2019-02-06T01:48:34.104Z,102232.00
2019-02-06T01:51:04.488Z,102232.00
2019-02-06T01:53:34.847Z,102225.00
2019-02-06T01:56:05.771Z,102227.00
2019-02-06T01:58:36.131Z,102225.00
2019-02-06T02:01:07.188Z,102218.00
2019-02-06T02:03:37.545Z,102229.00
2019-02-06T02:06:07.925Z,102225.00
2019-02-06T02:08:39.924Z,102221.00
2019-02-06T02:11:10.305Z,102222.00
2019-02-06T02:13:40.668Z,102223.00
2019-02-06T02:16:11.058Z,102225.00
2019-02-06T02:18:41.422Z,102227.00
2019-02-06T02:21:11.807Z,102224.00
2019-02-06T02:23:42.439Z,102225.00
2019-02-06T02:26:12.820Z,102229.00
2019-02-06T02:28:43.182Z,102223.00
2019-02-06T02:31:13.637Z,102231.00
2019-02-06T02:33:44.023Z,102233.00
2019-02-06T02:36:16.450Z,102218.00
2019-02-06T02:38:46.648Z,102233.00
2019-02-06T02:41:17.008Z,102229.00
2019-02-06T02:43:47.394Z,102228.00
2019-02-06T02:46:17.753Z,102228.00
2019-02-06T02:48:48.203Z,102221.00
2019-02-06T02:51:18.599Z,102223.00
2019-02-06T02:53:48.986Z,102222.00
2019-02-06T02:56:19.346Z,102222.00
2019-02-06T02:58:49.735Z,102216.00
2019-02-06T03:01:27.806Z,102226.00
2019-02-06T03:04:02.529Z,102222.00
2019-02-06T03:06:32.884Z,102219.00
2019-02-06T03:09:03.571Z,102219.00
2019-02-06T03:11:33.930Z,102211.00
2019-02-06T03:14:04.479Z,102217.00
2019-02-06T03:16:47.794Z,102200.00
2019-02-06T03:19:18.174Z,102206.00
2019-02-06T03:21:48.535Z,102195.00
2019-02-06T03:24:18.918Z,102202.00
2019-02-06T03:26:49.285Z,102203.00
2019-02-06T03:29:19.663Z,102193.00
2019-02-06T03:31:50.021Z,102202.00
2019-02-06T03:34:20.389Z,102197.00
2019-02-06T03:36:50.769Z,102195.00
2019-02-06T03:39:21.122Z,102191.00
2019-02-06T03:41:51.783Z,102187.00
2019-02-06T03:44:22.140Z,102185.00
2019-02-06T03:46:52.529Z,102196.00
2019-02-06T03:49:22.889Z,102195.00
2019-02-06T03:51:53.276Z,102198.00
2019-02-06T03:54:23.634Z,102204.00
2019-02-06T03:56:54.287Z,102187.00
2019-02-06T03:59:24.640Z,102188.00
2019-02-06T04:01:55.020Z,102184.00
2019-02-06T04:04:25.561Z,102193.00
2019-02-06T04:07:00.892Z,102191.00
2019-02-06T04:09:28.018Z,102189.00
2019-02-06T04:11:58.931Z,102193.00
2019-02-06T04:14:29.305Z,102194.00
2019-02-06T04:16:59.685Z,102177.00
2019-02-06T04:19:30.042Z,102184.00
2019-02-06T04:22:00.422Z,102182.00
2019-02-06T04:24:30.784Z,102181.00
2019-02-06T04:27:01.171Z,102182.00
2019-02-06T04:29:31.524Z,102184.00
2019-02-06T04:32:01.905Z,102183.00
2019-02-06T04:34:32.262Z,102184.00
2019-02-06T04:37:06.758Z,102187.00
2019-02-06T04:39:34.972Z,102181.00
2019-02-06T04:42:05.528Z,102179.00
2019-02-06T04:44:35.895Z,102177.00
2019-02-06T04:47:06.278Z,102172.00
2019-02-06T04:49:36.630Z,102171.00
2019-02-06T04:52:07.183Z,102169.00
2019-02-06T04:54:37.587Z,102172.00
2019-02-06T04:57:09.539Z,102167.00
2019-02-06T04:59:39.967Z,102163.00
2019-02-06T05:02:10.416Z,102169.00
2019-02-06T05:04:41.160Z,102164.00
2019-02-06T05:07:19.466Z,102158.00
2019-02-06T05:09:43.595Z,102151.00
2019-02-06T05:12:13.976Z,102149.00
2019-02-06T05:14:44.338Z,102152.00
2019-02-06T05:17:14.725Z,102151.00
2019-02-06T05:19:45.361Z,102157.00
2019-02-06T05:22:15.842Z,102159.00
2019-02-06T05:24:46.180Z,102159.00
2019-02-06T05:27:16.561Z,102160.00
2019-02-06T05:29:46.928Z,102160.00
2019-02-06T05:32:17.401Z,102162.00
2019-02-06T05:34:47.735Z,102163.00
2019-02-06T05:37:18.116Z,102162.00
2019-02-06T05:39:48.486Z,102166.00
2019-02-06T05:42:18.923Z,102167.00
2019-02-06T05:44:49.248Z,102169.00
2019-02-06T05:47:20.013Z,102163.00
2019-02-06T05:49:50.385Z,102168.00
2019-02-06T05:52:20.761Z,102163.00
2019-02-06T05:54:51.123Z,102162.00
2019-02-06T05:57:21.515Z,102154.00
2019-02-06T05:59:51.879Z,102144.00
2019-02-06T06:02:22.744Z,102146.00
2019-02-06T06:04:53.107Z,102148.00
2019-02-06T06:07:23.492Z,102157.00
2019-02-06T06:09:53.851Z,102161.00
2019-02-06T06:12:24.241Z,102158.00
2019-02-06T06:14:54.612Z,102155.00
2019-02-06T06:17:25.279Z,102157.00
2019-02-06T06:19:55.635Z,102155.00
2019-02-06T06:22:26.028Z,102160.00
2019-02-06T06:24:56.403Z,102155.00
2019-02-06T06:27:26.784Z,102144.00
2019-02-06T06:29:57.148Z,102149.00
2019-02-06T06:32:27.824Z,102149.00
2019-02-06T06:34:58.219Z,102150.00
2019-02-06T06:37:28.583Z,102149.00
2019-02-06T06:39:59.115Z,102144.00
2019-02-06T06:42:30.134Z,102142.00
2019-02-06T06:45:00.499Z,102143.00
2019-02-06T06:47:30.884Z,102143.00
2019-02-06T06:50:01.249Z,102138.00
2019-02-06T06:52:31.632Z,102130.00
2019-02-06T06:55:02.003Z,102137.00
2019-02-06T06:57:32.382Z,102131.00
2019-02-06T07:00:03.016Z,102126.00
2019-02-06T07:02:34.468Z,102117.00
2019-02-06T07:05:08.836Z,102125.00
2019-02-06T07:07:39.249Z,102121.00
2019-02-06T07:10:17.444Z,102121.00
2019-02-06T07:12:47.813Z,102115.00
2019-02-06T07:15:33.260Z,102122.00
2019-02-06T07:18:03.846Z,102121.00
2019-02-06T07:20:34.209Z,102116.00
2019-02-06T07:23:05.031Z,102107.00
2019-02-06T07:25:35.387Z,102109.00
2019-02-06T07:28:05.839Z,102100.00
2019-02-06T07:30:37.207Z,102095.00
2019-02-06T07:33:07.966Z,102099.00
2019-02-06T07:35:38.331Z,102100.00
2019-02-06T07:38:11.650Z,102101.00
2019-02-06T07:40:40.780Z,102101.00
2019-02-06T07:43:11.160Z,102099.00
2019-02-06T07:45:41.518Z,102101.00
2019-02-06T07:48:11.897Z,102111.00
2019-02-06T07:50:42.535Z,102105.00
2019-02-06T07:53:12.915Z,102107.00
2019-02-06T07:55:43.272Z,102111.00
2019-02-06T07:58:13.654Z,102102.00
2019-02-06T08:00:44.017Z,102106.00
2019-02-06T08:03:14.403Z,102111.00
2019-02-06T08:05:44.783Z,102116.00
2019-02-06T08:08:15.158Z,102122.00
2019-02-06T08:10:45.518Z,102129.00
2019-02-06T08:13:15.897Z,102135.00
2019-02-06T08:15:46.258Z,102126.00
2019-02-06T08:18:16.915Z,102114.00
2019-02-06T08:20:47.279Z,102114.00
2019-02-06T08:23:17.654Z,102117.00
2019-02-06T08:25:48.016Z,102113.00
2019-02-06T08:28:18.467Z,102106.00
2019-02-06T08:30:48.833Z,102099.00
2019-02-06T08:33:19.415Z,102097.00
2019-02-06T08:35:49.834Z,102102.00
2019-02-06T08:38:20.250Z,102099.00
2019-02-06T08:40:50.625Z,102093.00
2019-02-06T08:43:21.077Z,102074.00
2019-02-06T08:45:51.428Z,102079.00
2019-02-06T08:48:21.850Z,102081.00
2019-02-06T08:50:52.300Z,102078.00
2019-02-06T08:53:22.679Z,102076.00
2019-02-06T08:55:53.431Z,102072.00
2019-02-06T08:58:23.895Z,102059.00
2019-02-06T09:00:54.738Z,102058.00
2019-02-06T09:03:25.122Z,102048.00
2019-02-06T09:05:55.481Z,102060.00
2019-02-06T09:08:25.871Z,102067.00
2019-02-06T09:10:56.222Z,102079.00
2019-02-06T09:13:26.609Z,102084.00
2019-02-06T09:15:56.967Z,102068.00
2019-02-06T09:18:27.371Z,102063.00
2019-02-06T09:20:57.719Z,102056.00
2019-02-06T09:23:28.104Z,102053.00
2019-02-06T09:25:58.488Z,102052.00
2019-02-06T09:28:29.361Z,102042.00
2019-02-06T09:30:59.743Z,102050.00
2019-02-06T09:33:30.141Z,102042.00
2019-02-06T09:36:00.571Z,102044.00
2019-02-06T09:38:30.945Z,102039.00
2019-02-06T09:41:01.320Z,102038.00
2019-02-06T09:43:32.027Z,102049.00
2019-02-06T09:46:02.412Z,102037.00
2019-02-06T09:48:32.798Z,102046.00
2019-02-06T09:51:03.160Z,102056.00
2019-02-06T09:53:33.558Z,102060.00
2019-02-06T09:56:04.021Z,102064.00
2019-02-06T09:58:34.396Z,102067.00
2019-02-06T10:01:04.784Z,102059.00
2019-02-06T10:03:35.162Z,102063.00
2019-02-06T10:06:05.557Z,102051.00
2019-02-06T10:08:35.931Z,102050.00
2019-02-06T10:11:06.702Z,102049.00
2019-02-06T10:13:37.068Z,102035.00
2019-02-06T10:16:07.466Z,102031.00
2019-02-06T10:18:37.832Z,102030.00
2019-02-06T10:21:08.979Z,102012.00
2019-02-06T10:23:39.352Z,101993.00
2019-02-06T10:26:09.922Z,101995.00
2019-02-06T10:28:40.295Z,101996.00
2019-02-06T10:31:10.689Z,102010.00
2019-02-06T10:33:41.063Z,102007.00
2019-02-06T10:36:11.458Z,101998.00
2019-02-06T10:38:41.838Z,101986.00
2019-02-06T10:41:12.299Z,101983.00
2019-02-06T10:43:42.672Z,101987.00
2019-02-06T10:46:13.130Z,101979.00
2019-02-06T10:48:43.955Z,101983.00
2019-02-06T10:51:14.841Z,101982.00
2019-02-06T10:53:45.497Z,101973.00
2019-02-06T10:56:15.887Z,101949.00
2019-02-06T10:58:46.253Z,101962.00
2019-02-06T11:01:16.736Z,101955.00
2019-02-06T11:03:47.111Z,101948.00
2019-02-06T11:06:17.504Z,101947.00
2019-02-06T11:08:48.043Z,101956.00
2019-02-06T11:11:18.435Z,101943.00
2019-02-06T11:13:49.863Z,101947.00
2019-02-06T11:16:20.379Z,101942.00
2019-02-06T11:18:50.746Z,101950.00
2019-02-06T11:21:21.618Z,101948.00
2019-02-06T11:23:52.195Z,101942.00
2019-02-06T11:26:22.564Z,101953.00
2019-02-06T11:28:52.967Z,101948.00
2019-02-06T11:31:23.345Z,101937.00
2019-02-06T11:33:53.730Z,101939.00
2019-02-06T11:36:24.537Z,101933.00
2019-02-06T11:38:55.543Z,101935.00
2019-02-06T11:41:25.910Z,101935.00
2019-02-06T11:43:56.292Z,101920.00
2019-02-06T11:46:26.660Z,101918.00
2019-02-06T11:48:57.437Z,101919.00
2019-02-06T11:51:27.874Z,101921.00
2019-02-06T11:53:58.258Z,101912.00
2019-02-06T11:56:28.628Z,101904.00
2019-02-06T11:58:59.187Z,101893.00
2019-02-06T12:01:30.021Z,101888.00
2019-02-06T12:04:00.394Z,101878.00
2019-02-06T12:06:30.825Z,101874.00
2019-02-06T12:09:01.271Z,101865.00
2019-02-06T12:11:32.638Z,101860.00
2019-02-06T12:14:03.064Z,101855.00
2019-02-06T12:16:33.716Z,101862.00
2019-02-06T12:19:04.458Z,101847.00
2019-02-06T12:21:46.994Z,101857.00
2019-02-06T12:24:18.350Z,101849.00
2019-02-06T12:26:48.713Z,101837.00
2019-02-06T12:29:19.271Z,101836.00
2019-02-06T12:31:49.649Z,101833.00
2019-02-06T12:34:20.028Z,101829.00
2019-02-06T12:36:50.398Z,101826.00
2019-02-06T12:39:22.768Z,101815.00
2019-02-06T12:41:52.859Z,101812.00
2019-02-06T12:44:23.639Z,101810.00
2019-02-06T12:46:53.980Z,101807.00
2019-02-06T12:49:24.365Z,101811.00
2019-02-06T12:51:54.731Z,101794.00
2019-02-06T12:54:25.138Z,101789.00
2019-02-06T12:56:55.485Z,101789.00
2019-02-06T12:59:27.227Z,101796.00
2019-02-06T13:01:57.592Z,101785.00
2019-02-06T13:04:28.041Z,101789.00
2019-02-06T13:07:00.253Z,101787.00
2019-02-06T13:09:31.484Z,101784.00
2019-02-06T13:12:01.895Z,101793.00
2019-02-06T13:14:32.285Z,101776.00
2019-02-06T13:17:02.663Z,101767.00
2019-02-06T13:19:33.068Z,101765.00
2019-02-06T13:22:03.609Z,101766.00
2019-02-06T13:24:34.013Z,101766.00
2019-02-06T13:27:04.835Z,101767.00
2019-02-06T13:29:36.299Z,101767.00
2019-02-06T13:32:06.662Z,101772.00
2019-02-06T13:34:37.053Z,101758.00
2019-02-06T13:37:07.421Z,101767.00
2019-02-06T13:39:37.817Z,101760.00
2019-02-06T13:42:08.178Z,101753.00
2019-02-06T13:44:41.424Z,101751.00
2019-02-06T13:47:10.661Z,101756.00
2019-02-06T13:49:41.020Z,101749.00
2019-02-06T13:52:11.408Z,101751.00
2019-02-06T13:54:42.142Z,101757.00
2019-02-06T13:57:12.533Z,101763.00
2019-02-06T13:59:42.895Z,101741.00
2019-02-06T14:02:13.275Z,101745.00
2019-02-06T14:04:43.638Z,101739.00
2019-02-06T14:07:14.023Z,101736.00
2019-02-06T14:09:44.380Z,101735.00
2019-02-06T14:12:14.768Z,101726.00
2019-02-06T14:14:45.119Z,101718.00
2019-02-06T14:17:18.229Z,101708.00
2019-02-06T14:19:47.576Z,101712.00
2019-02-06T14:22:18.228Z,101709.00
2019-02-06T14:24:48.666Z,101713.00
2019-02-06T14:27:32.349Z,101707.00
2019-02-06T14:30:36.485Z,101707.00
2019-02-06T14:33:17.195Z,101713.00
2019-02-06T14:36:17.517Z,101711.00
2019-02-06T14:39:14.903Z,101708.00
2019-02-06T14:41:53.415Z,101706.00
2019-02-06T14:44:44.122Z,101698.00
2019-02-06T14:47:33.818Z,101707.00
2019-02-06T14:50:31.721Z,101704.00
2019-02-06T14:53:21.525Z,101702.00
2019-02-06T14:56:17.715Z,101706.00
2019-02-06T14:59:34.572Z,101707.00
2019-02-06T15:02:32.128Z,101698.00
2019-02-06T15:05:24.647Z,101703.00
2019-02-06T15:08:23.500Z,101702.00
2019-02-06T15:11:19.840Z,101689.00
2019-02-06T15:14:04.670Z,101682.00
2019-02-06T15:17:06.346Z,101679.00
2019-02-06T15:19:47.440Z,101682.00
2019-02-06T15:22:49.357Z,101670.00
2019-02-06T15:25:26.941Z,101671.00
2019-02-06T15:28:19.600Z,101666.00
2019-02-06T15:31:18.492Z,101665.00
2019-02-06T15:34:15.673Z,101670.00
2019-02-06T15:37:14.820Z,101657.00
2019-02-06T15:40:27.681Z,101650.00
2019-02-06T15:43:23.974Z,101653.00
2019-02-06T15:46:04.801Z,101645.00
2019-02-06T15:48:58.645Z,101647.00
2019-02-06T15:51:59.082Z,101644.00
2019-02-06T15:55:25.736Z,101647.00
2019-02-06T15:58:12.589Z,101644.00
2019-02-06T16:01:15.342Z,101628.00
2019-02-06T16:04:30.345Z,101625.00
2019-02-06T16:07:19.774Z,101638.00
2019-02-06T16:10:31.428Z,101631.00
2019-02-06T16:13:27.144Z,101622.00
2019-02-06T16:16:02.221Z,101622.00
2019-02-06T16:19:06.054Z,101620.00
2019-02-06T16:21:53.492Z,101618.00
2019-02-06T16:24:48.603Z,101616.00
2019-02-06T16:27:26.289Z,101606.00
2019-02-06T16:30:13.285Z,101601.00
2019-02-06T16:32:53.747Z,101600.00
2019-02-06T16:35:52.279Z,101593.00
2019-02-06T16:38:35.493Z,101591.00
2019-02-06T16:41:31.506Z,101591.00
2019-02-06T16:44:24.282Z,101552.00
2019-02-06T16:47:26.914Z,101597.00
2019-02-06T16:50:24.499Z,101602.00
2019-02-06T16:53:26.356Z,101585.00
2019-02-06T16:56:25.079Z,101580.00
2019-02-06T16:59:17.858Z,101586.00
2019-02-06T17:02:18.579Z,101576.00
2019-02-06T17:05:30.930Z,101572.00
2019-02-06T17:08:25.504Z,101565.00
2019-02-06T17:11:35.586Z,101571.00
2019-02-06T17:14:19.148Z,101571.00
2019-02-06T17:17:05.841Z,101582.00
2019-02-06T17:19:46.961Z,101580.00
2019-02-06T17:23:03.950Z,101584.00
2019-02-06T17:25:53.515Z,101580.00
2019-02-06T17:28:36.665Z,101579.00
2019-02-06T17:31:41.489Z,101575.00
2019-02-06T17:34:39.367Z,101584.00
2019-02-06T17:37:39.492Z,101564.00
2019-02-06T17:40:31.002Z,101561.00
2019-02-06T17:43:18.094Z,101566.00
2019-02-06T17:46:22.666Z,101558.00
2019-02-06T17:49:34.328Z,101564.00
2019-02-06T17:52:38.124Z,101543.00
2019-02-06T17:55:17.472Z,101540.00
2019-02-06T17:57:50.322Z,101537.00
2019-02-06T18:00:31.638Z,101535.00
2019-02-06T18:03:06.849Z,101538.00
2019-02-06T18:05:40.153Z,101536.00
2019-02-06T18:08:09.839Z,101527.00
2019-02-06T18:10:41.371Z,101524.00
2019-02-06T18:13:13.830Z,101523.00
2019-02-06T18:15:44.218Z,101514.00
2019-02-06T18:18:15.424Z,101523.00
2019-02-06T18:20:46.092Z,101534.00
2019-02-06T18:23:16.480Z,101526.00
2019-02-06T18:25:46.840Z,101538.00
2019-02-06T18:28:17.213Z,101536.00
2019-02-06T18:30:47.639Z,101534.00
2019-02-06T18:33:18.850Z,101522.00
2019-02-06T18:35:50.038Z,101528.00
2019-02-06T18:38:20.399Z,101535.00
2019-02-06T18:40:50.863Z,101540.00
2019-02-06T18:43:22.185Z,101539.00
2019-02-06T18:45:52.648Z,101543.00
2019-02-06T18:48:25.093Z,101531.00
2019-02-06T18:50:55.828Z,101536.00
2019-02-06T18:53:26.187Z,101527.00
2019-02-06T18:55:56.596Z,101530.00
2019-02-06T18:58:27.574Z,101528.00
2019-02-06T19:00:58.122Z,101519.00
2019-02-06T19:03:33.137Z,101524.00
2019-02-06T19:06:03.648Z,101512.00
2019-02-06T19:08:34.426Z,101519.00
2019-02-06T19:11:05.288Z,101514.00
2019-02-06T19:13:36.522Z,101503.00
2019-02-06T19:16:07.154Z,101507.00
2019-02-06T19:18:37.592Z,101488.00
2019-02-06T19:21:07.981Z,101485.00
2019-02-06T19:23:38.718Z,101483.00
2019-02-06T19:26:09.107Z,101484.00
2019-02-06T19:28:40.130Z,101486.00
2019-02-06T19:31:10.963Z,101494.00
2019-02-06T19:33:41.341Z,101489.00
2019-02-06T19:36:11.734Z,101486.00
2019-02-06T19:38:42.481Z,101485.00
2019-02-06T19:41:12.864Z,101482.00
2019-02-06T19:43:43.315Z,101482.00
2019-02-06T19:46:13.704Z,101476.00
2019-02-06T19:48:44.071Z,101472.00
2019-02-06T19:51:14.458Z,101476.00
2019-02-06T19:53:45.097Z,101477.00
2019-02-06T19:56:15.487Z,101474.00
2019-02-06T19:58:45.847Z,101470.00
2019-02-06T20:01:16.241Z,101471.00
2019-02-06T20:03:46.708Z,101470.00
2019-02-06T20:08:58.625Z,101462.00
2019-02-06T20:11:29.027Z,101457.00
2019-02-06T20:13:59.389Z,101464.00
2019-02-06T20:16:29.781Z,101469.00
2019-02-06T20:19:00.216Z,101459.00
2019-02-06T20:21:30.608Z,101460.00
2019-02-06T20:24:01.247Z,101458.00
2019-02-06T20:26:31.649Z,101460.00
2019-02-06T20:29:01.995Z,101465.00
2019-02-06T20:31:32.394Z,101457.00
2019-02-06T20:34:02.749Z,101455.00
2019-02-06T20:36:33.135Z,101453.00
2019-02-06T20:39:05.407Z,101451.00
2019-02-06T20:41:36.171Z,101460.00
2019-02-06T20:44:06.697Z,101443.00
2019-02-06T20:46:37.084Z,101454.00
2019-02-06T20:49:07.611Z,101442.00
2019-02-06T20:51:38.004Z,101448.00
2019-02-06T20:54:08.739Z,101441.00
2019-02-06T20:56:39.130Z,101437.00
2019-02-06T20:59:09.487Z,101441.00
2019-02-06T21:01:39.878Z,101439.00
2019-02-06T21:04:10.238Z,101432.00
2019-02-06T21:06:54.354Z,101434.00
2019-02-06T21:09:24.715Z,101436.00
2019-02-06T21:11:55.099Z,101421.00
2019-02-06T21:14:25.467Z,101440.00
2019-02-06T21:16:55.857Z,101442.00
2019-02-06T21:19:28.184Z,101449.00
2019-02-06T21:21:58.305Z,101446.00
2019-02-06T21:24:28.659Z,101447.00
2019-02-06T21:26:59.058Z,101435.00
2019-02-06T21:29:29.421Z,101439.00
2019-02-06T21:31:59.808Z,101430.00
2019-02-06T21:34:30.543Z,101431.00
2019-02-06T21:37:00.919Z,101433.00
2019-02-06T21:39:31.282Z,101425.00
2019-02-06T21:42:01.675Z,101418.00
2019-02-06T21:44:32.036Z,101413.00
2019-02-06T21:47:02.421Z,101416.00
2019-02-06T21:49:33.158Z,101414.00
2019-02-06T21:52:03.715Z,101408.00
2019-02-06T21:54:34.084Z,101394.00
2019-02-06T21:57:04.608Z,101392.00
2019-02-06T21:59:34.990Z,101390.00
2019-02-06T22:02:05.714Z,101381.00
2019-02-06T22:04:36.074Z,101385.00
2019-02-06T22:07:06.469Z,101386.00
2019-02-06T22:09:36.822Z,101379.00
2019-02-06T22:12:07.214Z,101388.00
2019-02-06T22:14:37.581Z,101382.00
2019-02-06T22:17:09.237Z,101398.00
2019-02-06T22:19:39.618Z,101382.00
2019-02-06T22:22:09.998Z,101381.00
2019-02-06T22:24:40.360Z,101376.00
2019-02-06T22:27:10.726Z,101373.00
2019-02-06T22:29:41.285Z,101355.00
2019-02-06T22:32:11.753Z,101358.00
2019-02-06T22:34:42.157Z,101333.00
2019-02-06T22:37:12.526Z,101344.00
2019-02-06T22:39:42.933Z,101345.00
2019-02-06T22:42:13.280Z,101359.00
2019-02-06T22:44:43.742Z,101369.00
2019-02-06T22:47:14.112Z,101377.00
2019-02-06T22:49:44.495Z,101382.00
2019-02-06T22:52:15.029Z,101392.00
2019-02-06T22:54:45.412Z,101382.00
2019-02-06T22:57:16.047Z,101369.00
2019-02-06T22:59:46.430Z,101361.00
2019-02-06T23:02:16.793Z,101359.00
2019-02-06T23:04:47.207Z,101346.00
2019-02-06T23:07:17.565Z,101356.00
2019-02-06T23:09:47.946Z,101346.00
2019-02-06T23:12:18.315Z,101343.00
2019-02-06T23:14:48.763Z,101342.00
2019-02-06T23:17:19.123Z,101347.00
2019-02-06T23:19:49.502Z,101341.00
2019-02-06T23:22:19.866Z,101341.00
2019-02-06T23:24:50.555Z,101346.00
2019-02-06T23:27:20.915Z,101341.00
2019-02-06T23:29:52.266Z,101340.00
2019-02-06T23:32:22.621Z,101331.00
2019-02-06T23:34:53.969Z,101329.00
2019-02-06T23:37:24.611Z,101315.00
2019-02-06T23:39:54.986Z,101309.00
2019-02-06T23:42:25.350Z,101316.00
2019-02-06T23:44:55.737Z,101310.00
2019-02-06T23:47:26.103Z,101306.00
2019-02-06T23:49:57.456Z,101305.00
2019-02-06T23:52:27.817Z,101302.00
2019-02-06T23:54:58.205Z,101304.00
2019-02-06T23:57:28.574Z,101299.00
2019-02-06T23:59:58.952Z,101283.00
